Hattfjelldal Airport


Codes: ENHT/
Name: Hattfjelldal Airport
City: Hattfjelldal
Country: Norway
Elevation: 689 ft.

Photos at Hattfjelldal Airport


   Photos courtesy of SpottingLog. You can add your own sightings and photos by signing up for a free trial today.



No photos found.

Weather at Hattfjelldal Airport


Time (UTC)DescriptionTempratureWindCloud coverageVisibilityPressureHumidity
25-Jun-2024 21:00Overcast Clouds14°C4 mph, W87%10000m1015hPa76%
26-Jun-2024 00:00Overcast Clouds13°C4 mph, W87%10000m1016hPa82%
26-Jun-2024 03:00Light Rain13°C7 mph, NW95%10000m1016hPa83%
26-Jun-2024 06:00Light Rain12°C7 mph, NW99%10000m1017hPa76%
26-Jun-2024 09:00Overcast Clouds14°C4 mph, NW100%10000m1017hPa62%
26-Jun-2024 12:00Broken Clouds16°C7 mph, NW77%10000m1017hPa48%
26-Jun-2024 15:00Clear Sky17°C7 mph, NW8%10000m1016hPa44%
26-Jun-2024 18:00Broken Clouds16°C7 mph, NW53%10000m1016hPa49%
26-Jun-2024 21:00Overcast Clouds12°C2 mph, NW100%10000m1017hPa70%
27-Jun-2024 00:00Broken Clouds9°C0 mph, NE71%10000m1017hPa77%
27-Jun-2024 03:00Broken Clouds12°C4 mph, SE75%10000m1016hPa67%
27-Jun-2024 06:00Broken Clouds16°C4 mph, SE62%10000m1014hPa48%
27-Jun-2024 09:00Scattered Clouds21°C2 mph, SE26%10000m1012hPa52%
27-Jun-2024 12:00Scattered Clouds24°C7 mph, S40%10000m1011hPa54%
27-Jun-2024 15:00Broken Clouds25°C7 mph, S71%10000m1010hPa52%
27-Jun-2024 18:00Light Rain24°C7 mph, SE78%10000m1009hPa64%
27-Jun-2024 21:00Overcast Clouds20°C7 mph, E100%10000m1009hPa76%
28-Jun-2024 00:00Overcast Clouds18°C9 mph, E87%10000m1008hPa81%
28-Jun-2024 03:00Broken Clouds19°C9 mph, E59%10000m1006hPa79%
28-Jun-2024 06:00Broken Clouds22°C11 mph, SE56%10000m1005hPa62%
28-Jun-2024 09:00Broken Clouds24°C16 mph, SE57%10000m1004hPa53%
28-Jun-2024 12:00Scattered Clouds25°C25 mph, SE42%10000m1002hPa48%
28-Jun-2024 15:00Overcast Clouds25°C20 mph, SE85%10000m999hPa52%
28-Jun-2024 18:00Light Rain20°C11 mph, SE92%9761m997hPa83%
28-Jun-2024 21:00Moderate Rain19°C9 mph, SE100%4483m995hPa92%
29-Jun-2024 00:00Light Rain17°C7 mph, S90%10000m995hPa89%
29-Jun-2024 03:00Light Rain14°C11 mph, W93%10000m998hPa93%
29-Jun-2024 06:00Light Rain12°C11 mph, NW96%10000m1002hPa87%
29-Jun-2024 09:00Light Rain12°C11 mph, W100%10000m1005hPa77%
29-Jun-2024 12:00Light Rain14°C20 mph, W94%10000m1006hPa59%
29-Jun-2024 15:00Scattered Clouds14°C20 mph, W36%10000m1007hPa52%
29-Jun-2024 18:00Broken Clouds12°C11 mph, W51%10000m1008hPa60%
29-Jun-2024 21:00Few Clouds10°C2 mph, W22%10000m1009hPa74%
30-Jun-2024 00:00Few Clouds8°C4 mph, W20%10000m1009hPa77%
30-Jun-2024 03:00Few Clouds9°C4 mph, S14%10000m1009hPa75%
30-Jun-2024 06:00Scattered Clouds13°C2 mph, SE41%10000m1009hPa57%
30-Jun-2024 09:00Few Clouds16°C0 mph, SE22%10000m1007hPa48%
30-Jun-2024 12:00Scattered Clouds19°C2 mph, NW35%10000m1006hPa40%
30-Jun-2024 15:00Scattered Clouds20°C2 mph, E48%10000m1005hPa40%
30-Jun-2024 18:00Broken Clouds19°C7 mph, SE61%10000m1005hPa47%